Time;durP1;ratioP1;P1;durP2;ratioP2;P2;SDS_P1;SDS_P2;PMS_P1;PMS_P2;Temp;Humidity;BMP_temperature;BMP_pressure;BME280_temperature;BME280_humidity;BME280_pressure;Samples;Min_cycle;Max_cycle;Signal;HPM_P1;HPM_P2
2023/12/04 00:01:19;;;;;;;2.72;2.10;;;20.00;30.40;;;;;;5036191;28;20353;-52
2023/12/04 00:03:45;;;;;;;3.63;3.05;;;20.00;30.40;;;;;;5038054;28;20022;-56
2023/12/04 00:06:12;;;;;;;2.45;2.25;;;20.00;30.40;;;;;;5032772;28;20040;-55
2023/12/04 00:08:38;;;;;;;2.83;2.47;;;20.00;30.40;;;;;;5014961;28;20356;-58
2023/12/04 00:11:05;;;;;;;3.08;2.70;;;20.00;30.40;;;;;;5039201;28;20030;-55
2023/12/04 00:13:31;;;;;;;3.25;2.22;;;20.00;30.40;;;;;;5037201;28;20029;-57
2023/12/04 00:15:57;;;;;;;2.88;2.50;;;19.90;30.40;;;;;;5039265;28;20024;-57
2023/12/04 00:18:22;;;;;;;3.05;2.50;;;19.90;30.30;;;;;;5016148;28;20032;-57
2023/12/04 00:20:48;;;;;;;3.38;2.70;;;19.90;30.30;;;;;;5029758;28;20036;-55
2023/12/04 00:23:14;;;;;;;3.05;2.50;;;19.90;30.30;;;;;;5032126;28;20033;-55
2023/12/04 00:25:40;;;;;;;2.60;2.30;;;19.90;30.30;;;;;;5044443;28;20128;-56
2023/12/04 00:28:06;;;;;;;3.28;2.75;;;19.90;30.30;;;;;;5038473;28;20041;-57
2023/12/04 00:30:32;;;;;;;3.15;2.53;;;19.90;30.30;;;;;;5041821;28;20126;-51
2023/12/04 00:32:58;;;;;;;3.55;2.60;;;19.90;30.30;;;;;;5039288;28;20119;-55
2023/12/04 00:35:24;;;;;;;2.95;2.47;;;19.80;30.20;;;;;;5041678;28;20079;-57
2023/12/04 00:37:50;;;;;;;3.60;2.63;;;19.80;30.30;;;;;;5020459;28;20099;-56
2023/12/04 00:40:16;;;;;;;2.78;2.45;;;19.80;30.30;;;;;;5038234;28;20048;-56
2023/12/04 00:42:41;;;;;;;3.05;2.42;;;19.80;30.30;;;;;;5035549;28;20056;-55
2023/12/04 00:45:08;;;;;;;3.28;2.58;;;19.80;30.30;;;;;;5033942;28;20025;-55
2023/12/04 00:47:34;;;;;;;3.30;2.67;;;19.80;30.30;;;;;;5033567;28;20029;-56
2023/12/04 00:49:59;;;;;;;3.22;2.90;;;19.80;30.30;;;;;;5033707;28;20041;-53
2023/12/04 00:52:25;;;;;;;3.58;2.97;;;19.80;30.30;;;;;;5033868;28;20037;-56
2023/12/04 00:54:51;;;;;;;2.67;2.30;;;19.80;30.30;;;;;;5034113;28;20034;-54
2023/12/04 00:57:17;;;;;;;3.70;2.92;;;19.80;30.30;;;;;;5033230;28;20025;-56
2023/12/04 00:59:43;;;;;;;3.25;2.70;;;19.80;30.40;;;;;;5033299;28;20033;-54
2023/12/04 01:02:09;;;;;;;3.05;2.65;;;19.80;30.30;;;;;;5033151;28;20022;-55
2023/12/04 01:04:34;;;;;;;3.50;3.00;;;19.70;30.30;;;;;;5017118;28;20029;-57
2023/12/04 01:07:01;;;;;;;3.47;2.58;;;19.70;30.20;;;;;;5032605;28;20087;-56
2023/12/04 01:09:27;;;;;;;2.90;2.60;;;19.70;30.30;;;;;;5032912;28;20037;-55
2023/12/04 01:11:54;;;;;;;4.07;3.08;;;19.70;30.30;;;;;;5033421;28;20037;-60
2023/12/04 01:14:20;;;;;;;3.97;2.92;;;19.70;30.30;;;;;;5033749;28;20037;-56
2023/12/04 01:16:46;;;;;;;3.53;3.03;;;19.70;30.20;;;;;;5014585;28;20025;-54
2023/12/04 01:19:12;;;;;;;2.70;2.50;;;19.70;30.20;;;;;;5033041;28;20045;-56
2023/12/04 01:21:38;;;;;;;3.05;2.55;;;19.70;30.20;;;;;;5033762;28;20033;-55
2023/12/04 01:24:04;;;;;;;3.47;2.70;;;19.60;30.20;;;;;;5031316;28;20025;-54
2023/12/04 01:26:30;;;;;;;3.85;2.90;;;19.70;30.30;;;;;;5033331;28;20037;-53
2023/12/04 01:28:56;;;;;;;3.33;2.80;;;19.70;30.30;;;;;;5032734;28;20037;-56
2023/12/04 01:31:22;;;;;;;3.22;2.60;;;19.70;30.30;;;;;;5015749;28;20482;-58
2023/12/04 01:33:47;;;;;;;3.42;2.80;;;19.70;30.30;;;;;;5032618;28;20038;-54
2023/12/04 01:36:13;;;;;;;4.43;3.13;;;19.70;30.30;;;;;;5032832;28;20025;-57
2023/12/04 01:38:39;;;;;;;3.95;3.13;;;19.60;30.20;;;;;;5032748;28;20142;-53
2023/12/04 01:41:05;;;;;;;3.15;2.70;;;19.60;30.20;;;;;;5032689;28;20452;-57
2023/12/04 01:43:31;;;;;;;3.45;2.70;;;19.60;30.30;;;;;;5032660;28;20112;-58
2023/12/04 01:45:59;;;;;;;3.50;2.58;;;19.60;30.20;;;;;;5032234;28;20484;-57
2023/12/04 01:48:26;;;;;;;3.83;2.80;;;19.60;30.20;;;;;;5032440;28;20175;-55
2023/12/04 01:50:53;;;;;;;2.78;2.45;;;19.60;30.30;;;;;;5032872;28;20029;-58
2023/12/04 01:53:19;;;;;;;4.00;2.88;;;19.60;30.30;;;;;;5033049;28;20039;-56
2023/12/04 01:55:46;;;;;;;3.65;2.80;;;19.60;30.30;;;;;;5015463;28;20037;-51
2023/12/04 01:58:12;;;;;;;3.20;2.47;;;19.60;30.40;;;;;;4998994;28;20349;-53
2023/12/04 02:00:38;;;;;;;3.58;2.58;;;19.50;30.30;;;;;;5032399;28;20436;-56
2023/12/04 02:03:04;;;;;;;3.53;2.95;;;19.60;30.40;;;;;;5014620;28;20404;-55
2023/12/04 02:05:31;;;;;;;3.60;2.58;;;19.50;30.30;;;;;;5033257;28;20429;-55
2023/12/04 02:07:57;;;;;;;3.40;2.58;;;19.60;30.40;;;;;;5031577;28;20056;-56
2023/12/04 02:10:23;;;;;;;5.30;3.03;;;19.50;30.30;;;;;;4998056;28;20033;-59
2023/12/04 02:12:50;;;;;;;3.65;3.08;;;19.50;30.30;;;;;;5032964;28;20079;-55
2023/12/04 02:15:16;;;;;;;3.75;2.90;;;19.50;30.30;;;;;;5032575;28;20463;-52
2023/12/04 02:17:44;;;;;;;3.65;2.83;;;19.50;30.30;;;;;;5031281;28;20108;-59
2023/12/04 02:20:13;;;;;;;3.70;2.85;;;19.50;30.30;;;;;;5033395;28;20029;-55
2023/12/04 02:22:39;;;;;;;3.08;2.60;;;19.50;30.30;;;;;;5036890;28;20025;-56
2023/12/04 02:25:06;;;;;;;3.33;2.80;;;19.50;30.30;;;;;;5036661;28;20443;-56
2023/12/04 02:27:57;;;;;;;3.13;2.50;;;19.50;30.30;;;;;;5036072;28;20539;-59
2023/12/04 02:30:25;;;;;;;3.28;2.58;;;19.50;30.30;;;;;;5034461;28;20041;-57
2023/12/04 02:32:52;;;;;;;3.67;2.85;;;19.50;30.30;;;;;;5036507;28;20048;-56
2023/12/04 02:35:24;;;;;;;3.60;2.80;;;19.50;30.30;;;;;;5035911;28;20036;-54
2023/12/04 02:37:51;;;;;;;2.72;2.42;;;19.40;30.20;;;;;;5035524;28;20096;-57
2023/12/04 02:40:17;;;;;;;3.45;2.88;;;19.40;30.20;;;;;;5035188;28;20040;-55
2023/12/04 02:42:44;;;;;;;2.83;2.53;;;19.40;30.30;;;;;;5039391;28;20475;-57
2023/12/04 02:45:10;;;;;;;3.15;2.60;;;19.40;30.20;;;;;;5036561;28;20025;-55
2023/12/04 02:47:36;;;;;;;3.55;2.92;;;19.40;30.20;;;;;;5036529;28;20059;-58
2023/12/04 02:50:02;;;;;;;3.10;2.58;;;19.40;30.30;;;;;;5038032;28;20041;-54
2023/12/04 02:52:28;;;;;;;3.45;2.53;;;19.40;30.20;;;;;;5038431;28;20108;-53
2023/12/04 02:54:54;;;;;;;3.67;2.75;;;19.40;30.20;;;;;;5020765;28;20173;-53
2023/12/04 02:57:20;;;;;;;3.15;2.55;;;19.40;30.20;;;;;;5038343;28;20040;-54
2023/12/04 02:59:46;;;;;;;3.30;2.50;;;19.40;30.20;;;;;;5035288;28;20033;-53
2023/12/04 03:02:12;;;;;;;3.55;2.70;;;19.40;30.20;;;;;;5042163;28;20095;-57
2023/12/04 03:04:37;;;;;;;2.70;2.30;;;19.30;30.20;;;;;;5037937;28;20025;-50
2023/12/04 03:07:03;;;;;;;3.17;2.50;;;19.40;30.30;;;;;;5036364;28;20453;-54
2023/12/04 03:09:29;;;;;;;2.78;2.17;;;19.30;30.20;;;;;;5038199;28;20028;-57
2023/12/04 03:11:55;;;;;;;2.72;2.38;;;19.30;30.90;;;;;;5043401;28;20052;-55
2023/12/04 03:14:21;;;;;;;3.28;2.55;;;19.30;30.20;;;;;;5037440;28;20033;-54
2023/12/04 03:16:47;;;;;;;2.90;2.58;;;19.30;30.20;;;;;;5019326;28;20403;-52
2023/12/04 03:19:12;;;;;;;3.05;2.33;;;19.30;30.20;;;;;;5034989;28;20017;-56
2023/12/04 03:21:38;;;;;;;3.25;2.45;;;19.30;30.20;;;;;;5035505;28;20044;-54
2023/12/04 03:24:04;;;;;;;3.40;2.60;;;19.30;30.20;;;;;;5020018;28;20459;-57
2023/12/04 03:26:30;;;;;;;3.08;2.55;;;19.30;30.20;;;;;;5035272;28;20100;-57
2023/12/04 03:28:56;;;;;;;3.10;2.33;;;19.30;30.20;;;;;;5036874;28;20038;-57
2023/12/04 03:31:25;;;;;;;3.20;2.30;;;19.30;30.20;;;;;;5000991;28;20144;-58
2023/12/04 03:33:51;;;;;;;3.35;2.70;;;19.30;30.20;;;;;;5040349;28;20018;-55
2023/12/04 03:36:16;;;;;;;3.13;2.58;;;19.30;30.20;;;;;;5037571;28;20112;-52
2023/12/04 03:38:42;;;;;;;2.78;2.35;;;19.30;30.20;;;;;;5037646;28;20032;-55
2023/12/04 03:41:15;;;;;;;3.95;2.95;;;19.20;30.20;;;;;;5036142;28;20033;-56
2023/12/04 03:43:41;;;;;;;2.70;2.30;;;19.30;30.20;;;;;;5015470;28;20033;-54
2023/12/04 03:46:07;;;;;;;3.45;2.47;;;19.20;30.20;;;;;;5037374;28;20036;-56
2023/12/04 03:48:34;;;;;;;3.58;2.28;;;19.30;30.20;;;;;;5027651;28;20069;-51
2023/12/04 03:51:00;;;;;;;3.60;2.83;;;19.20;30.10;;;;;;5034732;28;20053;-52
2023/12/04 03:53:27;;;;;;;4.72;2.80;;;19.20;30.20;;;;;;5032592;28;20072;-55
2023/12/04 03:55:53;;;;;;;2.88;2.40;;;19.20;30.20;;;;;;5012919;28;20073;-58
2023/12/04 03:58:18;;;;;;;3.00;2.50;;;19.20;30.20;;;;;;5036446;28;20403;-53
2023/12/04 04:00:44;;;;;;;2.95;2.42;;;19.20;30.20;;;;;;5034768;28;20105;-51
2023/12/04 04:03:10;;;;;;;2.83;2.15;;;19.20;30.20;;;;;;5035114;28;20121;-54
2023/12/04 04:05:36;;;;;;;2.85;2.30;;;19.20;30.10;;;;;;5029340;28;20483;-51
2023/12/04 04:08:03;;;;;;;3.50;2.88;;;19.20;30.20;;;;;;5032912;28;20040;-48
2023/12/04 04:10:29;;;;;;;2.67;2.40;;;19.20;30.20;;;;;;5038412;28;20114;-57
2023/12/04 04:12:55;;;;;;;2.70;2.28;;;19.20;30.20;;;;;;5037432;28;20037;-55
2023/12/04 04:15:20;;;;;;;2.67;2.30;;;19.20;30.10;;;;;;5041967;28;20409;-53
2023/12/04 04:17:46;;;;;;;2.70;2.15;;;19.20;30.10;;;;;;5036554;28;20439;-53
2023/12/04 04:20:12;;;;;;;2.95;2.33;;;19.20;30.20;;;;;;5036715;28;20033;-48
2023/12/04 04:22:40;;;;;;;2.45;1.98;;;19.10;30.10;;;;;;5032283;28;20573;-54
2023/12/04 04:25:09;;;;;;;2.65;2.15;;;19.20;30.20;;;;;;5027934;28;20065;-54
2023/12/04 04:27:35;;;;;;;2.65;2.03;;;19.10;30.10;;;;;;5030029;28;20041;-52
2023/12/04 04:30:02;;;;;;;2.70;2.13;;;19.10;30.10;;;;;;5033711;28;20045;-56
2023/12/04 04:32:28;;;;;;;2.92;2.08;;;19.10;30.10;;;;;;5033028;28;20147;-58
2023/12/04 04:34:54;;;;;;;2.50;2.10;;;19.10;30.10;;;;;;5031868;28;20062;-56
2023/12/04 04:37:20;;;;;;;3.85;2.33;;;19.10;30.10;;;;;;5028762;28;20029;-56
2023/12/04 04:39:46;;;;;;;2.80;2.30;;;19.10;30.20;;;;;;5030111;28;20022;-52
2023/12/04 04:42:12;;;;;;;3.00;2.22;;;19.10;30.10;;;;;;5039224;28;20098;-53
2023/12/04 04:44:38;;;;;;;3.22;2.28;;;19.10;30.10;;;;;;5053031;28;20032;-55
2023/12/04 04:47:04;;;;;;;2.28;2.08;;;19.10;30.00;;;;;;5052843;28;20193;-55
2023/12/04 04:49:29;;;;;;;2.95;2.42;;;19.10;30.00;;;;;;5053260;28;20123;-48
2023/12/04 04:51:55;;;;;;;2.45;1.80;;;19.10;30.00;;;;;;5053406;28;20078;-52
2023/12/04 04:54:21;;;;;;;2.95;2.20;;;19.10;30.00;;;;;;5053473;28;20024;-52
2023/12/04 04:56:47;;;;;;;3.05;2.30;;;19.10;30.00;;;;;;5035259;28;20039;-54
2023/12/04 04:59:13;;;;;;;2.97;2.20;;;19.00;30.00;;;;;;5053196;28;20103;-52
2023/12/04 05:01:39;;;;;;;2.97;2.17;;;19.10;30.00;;;;;;5052992;28;20108;-57
2023/12/04 05:04:04;;;;;;;2.85;2.20;;;19.00;30.00;;;;;;5054211;28;20033;-53
2023/12/04 05:06:31;;;;;;;2.65;2.03;;;19.00;30.00;;;;;;5036243;28;20025;-54
2023/12/04 05:08:56;;;;;;;2.40;2.20;;;19.00;30.00;;;;;;5052952;28;20045;-52
2023/12/04 05:11:23;;;;;;;2.15;1.95;;;19.00;30.00;;;;;;5053223;28;20025;-54
2023/12/04 05:13:49;;;;;;;2.35;1.92;;;19.00;30.00;;;;;;5052725;28;20120;-55
2023/12/04 05:16:15;;;;;;;2.50;2.15;;;19.00;30.00;;;;;;5034680;28;20420;-54
2023/12/04 05:18:41;;;;;;;3.20;2.63;;;19.00;30.00;;;;;;5053312;28;20124;-56
2023/12/04 05:21:11;;;;;;;2.53;2.00;;;19.00;30.00;;;;;;5050412;28;20162;-54
2023/12/04 05:23:37;;;;;;;3.25;2.20;;;19.00;30.00;;;;;;5053035;28;20037;-55
2023/12/04 05:26:05;;;;;;;2.45;2.20;;;19.00;30.00;;;;;;5053074;28;20033;-54
2023/12/04 05:28:31;;;;;;;3.28;2.47;;;19.00;29.90;;;;;;5050087;28;20040;-53
2023/12/04 05:30:56;;;;;;;2.75;2.20;;;19.00;29.90;;;;;;5052691;28;20358;-54
2023/12/04 05:33:22;;;;;;;3.05;2.25;;;19.00;29.90;;;;;;5052505;28;20444;-55
2023/12/04 05:35:51;;;;;;;2.45;2.10;;;19.00;29.90;;;;;;5053260;28;20099;-56
2023/12/04 05:38:16;;;;;;;3.05;2.40;;;18.90;29.90;;;;;;5050440;28;20079;-51
2023/12/04 05:40:42;;;;;;;3.08;2.17;;;18.90;29.80;;;;;;5052701;28;20494;-53
2023/12/04 05:43:08;;;;;;;2.65;2.00;;;18.90;29.80;;;;;;5034764;28;20049;-48
2023/12/04 05:45:34;;;;;;;3.17;2.00;;;18.90;29.80;;;;;;5052318;28;20032;-60
2023/12/04 05:48:00;;;;;;;1.70;1.60;;;18.90;29.80;;;;;;5052504;28;20423;-50
2023/12/04 05:50:26;;;;;;;2.42;2.10;;;18.90;29.80;;;;;;5052917;28;20428;-53
2023/12/04 05:52:51;;;;;;;2.60;1.88;;;18.90;29.80;;;;;;5052366;28;20032;-55
2023/12/04 05:55:17;;;;;;;2.97;2.08;;;18.90;29.80;;;;;;5034408;28;20056;-56
2023/12/04 05:57:44;;;;;;;2.30;1.92;;;18.90;29.80;;;;;;5052244;28;20356;-53
2023/12/04 06:00:13;;;;;;;2.72;2.20;;;18.90;29.80;;;;;;5052209;28;20019;-51
2023/12/04 06:02:42;;;;;;;2.88;2.17;;;18.90;29.80;;;;;;5052702;28;20025;-55
2023/12/04 06:05:08;;;;;;;2.22;1.70;;;18.90;29.80;;;;;;5052615;28;20040;-54
2023/12/04 06:07:35;;;;;;;2.65;2.10;;;18.90;29.80;;;;;;5051406;28;20540;-55
2023/12/04 06:10:01;;;;;;;2.40;1.90;;;18.90;29.80;;;;;;5051912;28;20037;-54
2023/12/04 06:12:27;;;;;;;2.63;1.95;;;18.90;29.70;;;;;;5052267;28;20032;-56
2023/12/04 06:14:52;;;;;;;2.42;2.03;;;18.90;29.70;;;;;;5051640;28;20036;-53
2023/12/04 06:17:18;;;;;;;2.20;1.80;;;18.90;29.70;;;;;;5032854;28;20021;-45
2023/12/04 06:19:46;;;;;;;2.20;1.73;;;18.90;29.70;;;;;;5052168;28;20329;-52
2023/12/04 06:22:12;;;;;;;2.58;2.03;;;18.90;29.70;;;;;;5051833;28;20029;-48
2023/12/04 06:24:38;;;;;;;2.67;2.05;;;18.90;29.70;;;;;;5052106;28;20021;-54
2023/12/04 06:27:06;;;;;;;2.60;1.92;;;18.90;29.70;;;;;;5034133;28;20104;-57
2023/12/04 06:29:32;;;;;;;1.85;1.65;;;18.90;29.70;;;;;;5051799;28;20041;-56
2023/12/04 06:31:58;;;;;;;2.38;1.88;;;18.80;29.60;;;;;;5052024;28;20134;-55
2023/12/04 06:34:24;;;;;;;2.30;1.73;;;18.80;29.60;;;;;;5034000;28;20102;-51
2023/12/04 06:36:51;;;;;;;2.55;2.08;;;18.80;29.60;;;;;;5051811;28;20029;-53
2023/12/04 06:39:17;;;;;;;2.10;1.90;;;18.80;29.60;;;;;;5034089;28;20309;-54
2023/12/04 06:41:44;;;;;;;2.80;1.88;;;18.80;29.60;;;;;;5034043;28;20049;-54
2023/12/04 06:44:10;;;;;;;2.30;1.83;;;18.80;29.60;;;;;;5051769;28;20031;-52
2023/12/04 06:46:38;;;;;;;2.28;1.65;;;18.80;29.60;;;;;;5033486;28;20028;-54
2023/12/04 06:49:09;;;;;;;2.05;1.70;;;18.80;29.60;;;;;;5051700;28;20132;-50
2023/12/04 06:51:34;;;;;;;1.85;1.58;;;18.80;29.50;;;;;;5051764;28;20090;-50
2023/12/04 06:54:00;;;;;;;2.25;1.67;;;18.80;29.50;;;;;;5033993;28;20028;-55
2023/12/04 06:56:26;;;;;;;2.25;1.90;;;18.80;29.50;;;;;;5052044;28;20321;-52
2023/12/04 06:58:52;;;;;;;2.47;2.00;;;18.80;29.50;;;;;;5046953;28;20523;-54
2023/12/04 07:01:18;;;;;;;2.20;1.83;;;18.80;29.50;;;;;;5050785;28;20029;-54
2023/12/04 07:03:44;;;;;;;2.72;1.75;;;18.80;29.50;;;;;;5052663;28;20104;-54
2023/12/04 07:06:10;;;;;;;2.70;2.08;;;18.80;29.50;;;;;;5032279;28;20354;-53
2023/12/04 07:08:36;;;;;;;2.38;1.80;;;18.80;29.50;;;;;;5038890;28;20514;-55
2023/12/04 07:11:02;;;;;;;2.67;1.80;;;18.80;29.60;;;;;;5056570;28;20021;-54
2023/12/04 07:13:28;;;;;;;1.80;1.58;;;18.80;29.60;;;;;;5056612;28;20064;-55
2023/12/04 07:15:54;;;;;;;3.03;1.73;;;18.80;29.60;;;;;;5056542;28;20118;-53
2023/12/04 07:18:20;;;;;;;2.00;1.52;;;18.80;29.60;;;;;;5056033;28;20048;-56
2023/12/04 07:20:46;;;;;;;1.98;1.70;;;18.80;29.60;;;;;;5052850;28;20017;-56
2023/12/04 07:23:12;;;;;;;2.55;2.00;;;18.80;29.60;;;;;;5056048;28;20348;-50
2023/12/04 07:25:38;;;;;;;2.67;1.80;;;18.80;29.60;;;;;;5037377;28;20075;-51
2023/12/04 07:28:03;;;;;;;4.60;1.80;;;18.80;29.60;;;;;;5055208;28;20043;-56
2023/12/04 07:30:29;;;;;;;1.90;1.42;;;18.80;29.60;;;;;;5036959;28;20032;-56
2023/12/04 07:32:55;;;;;;;2.42;1.73;;;18.70;29.50;;;;;;5034665;28;20090;-57
2023/12/04 07:35:22;;;;;;;2.58;1.88;;;18.80;29.60;;;;;;5054749;28;20032;-58
2023/12/04 07:37:48;;;;;;;2.30;1.83;;;18.80;29.50;;;;;;5054774;28;20063;-56
2023/12/04 07:40:14;;;;;;;3.03;1.80;;;18.80;29.50;;;;;;5054301;28;20025;-58
2023/12/04 07:42:40;;;;;;;4.03;1.75;;;18.70;29.60;;;;;;5043892;28;20056;-56
2023/12/04 07:45:10;;;;;;;2.25;1.60;;;18.70;29.70;;;;;;5041921;28;20045;-59
2023/12/04 07:47:36;;;;;;;2.97;1.77;;;18.80;29.70;;;;;;5041325;28;20040;-57
2023/12/04 07:50:02;;;;;;;1.85;1.63;;;18.70;29.70;;;;;;5023786;28;20136;-57
2023/12/04 07:52:28;;;;;;;3.90;1.80;;;18.70;29.70;;;;;;5035840;28;20029;-57
2023/12/04 07:54:54;;;;;;;2.42;1.70;;;18.70;29.70;;;;;;5042129;28;20348;-57
2023/12/04 07:57:20;;;;;;;2.20;1.63;;;18.80;29.70;;;;;;5039304;28;20017;-55
2023/12/04 07:59:46;;;;;;;2.22;1.60;;;18.80;29.70;;;;;;5036048;28;20134;-56
2023/12/04 08:02:12;;;;;;;2.00;1.70;;;18.80;29.70;;;;;;5020350;28;20040;-57
2023/12/04 08:04:37;;;;;;;2.15;1.60;;;18.90;29.70;;;;;;5042236;28;20075;-57
2023/12/04 08:07:03;;;;;;;2.35;1.80;;;18.90;29.70;;;;;;5042962;28;20104;-53
2023/12/04 08:09:29;;;;;;;2.17;1.58;;;18.90;29.60;;;;;;5039709;28;20040;-55
2023/12/04 08:11:55;;;;;;;2.92;1.90;;;19.00;29.60;;;;;;5042668;28;20025;-57
2023/12/04 08:14:21;;;;;;;2.35;1.40;;;19.10;29.60;;;;;;5042690;28;20429;-57
2023/12/04 08:16:48;;;;;;;2.20;1.73;;;19.10;29.60;;;;;;5038738;28;20021;-56
2023/12/04 08:19:14;;;;;;;1.88;1.50;;;19.20;29.50;;;;;;5023740;28;20029;-55
2023/12/04 08:21:40;;;;;;;1.38;1.27;;;19.30;29.50;;;;;;5041563;28;20087;-55
2023/12/04 08:24:06;;;;;;;1.98;1.52;;;19.40;29.50;;;;;;5020732;28;20392;-56
2023/12/04 08:26:32;;;;;;;2.60;1.75;;;19.50;29.40;;;;;;5041417;28;20029;-52
2023/12/04 08:28:58;;;;;;;4.35;1.63;;;19.50;29.40;;;;;;5038475;28;20384;-55
2023/12/04 08:31:24;;;;;;;2.05;1.40;;;19.60;29.40;;;;;;5037534;28;20115;-56
2023/12/04 08:33:50;;;;;;;2.38;1.60;;;19.70;29.40;;;;;;5031068;28;20055;-58
2023/12/04 08:36:17;;;;;;;1.98;1.42;;;19.70;29.40;;;;;;5007056;28;20021;-49
2023/12/04 08:38:43;;;;;;;1.60;1.38;;;19.80;29.60;;;;;;5028499;28;20032;-54
2023/12/04 08:41:09;;;;;;;1.70;1.17;;;19.90;29.70;;;;;;5037801;28;20025;-49
2023/12/04 08:43:35;;;;;;;2.05;1.30;;;20.00;29.70;;;;;;5034551;28;20083;-50
2023/12/04 08:46:01;;;;;;;2.95;1.60;;;20.00;29.60;;;;;;5033140;28;20384;-56
2023/12/04 08:48:27;;;;;;;1.20;1.10;;;20.10;29.50;;;;;;5016393;28;20041;-49
2023/12/04 08:50:54;;;;;;;1.50;1.23;;;20.10;29.40;;;;;;5033844;28;20344;-54
2023/12/04 08:53:20;;;;;;;1.85;1.35;;;20.20;29.40;;;;;;5033405;28;20349;-54
2023/12/04 08:55:46;;;;;;;1.60;1.38;;;20.30;29.30;;;;;;5033640;28;20040;-54
2023/12/04 08:58:12;;;;;;;1.67;1.48;;;20.30;29.20;;;;;;5034024;28;20029;-53
2023/12/04 09:00:42;;;;;;;1.42;1.13;;;20.40;29.20;;;;;;5033120;28;20036;-54
2023/12/04 09:03:10;;;;;;;1.73;1.40;;;20.40;29.10;;;;;;5033124;28;20209;-55
2023/12/04 09:05:37;;;;;;;2.42;1.50;;;20.50;29.10;;;;;;5030834;28;20353;-52
2023/12/04 09:08:03;;;;;;;1.38;1.20;;;20.50;29.00;;;;;;5032536;28;20505;-50
2023/12/04 09:10:29;;;;;;;1.60;1.30;;;20.60;29.00;;;;;;5032628;28;20109;-54
2023/12/04 09:12:55;;;;;;;1.98;1.38;;;20.60;28.90;;;;;;5015466;28;20086;-53
2023/12/04 09:15:21;;;;;;;2.05;1.42;;;20.60;28.90;;;;;;5030609;28;20021;-52
2023/12/04 09:17:46;;;;;;;1.65;1.40;;;20.70;28.80;;;;;;5032302;28;20404;-49
2023/12/04 09:20:12;;;;;;;2.00;1.70;;;20.70;28.80;;;;;;5016097;28;20109;-50
2023/12/04 09:22:40;;;;;;;1.48;1.13;;;20.80;28.80;;;;;;5014317;28;20026;-53
2023/12/04 09:25:08;;;;;;;1.42;1.20;;;20.80;28.70;;;;;;5016101;28;20032;-55
2023/12/04 09:27:34;;;;;;;1.70;1.55;;;20.80;28.70;;;;;;5016022;28;20033;-54
2023/12/04 09:30:01;;;;;;;1.63;1.42;;;20.90;28.70;;;;;;5033869;28;20045;-50
2023/12/04 09:32:26;;;;;;;2.17;1.60;;;20.90;28.70;;;;;;5032453;28;20040;-51
2023/12/04 09:34:52;;;;;;;1.80;1.50;;;20.90;28.60;;;;;;5015959;28;20029;-53
2023/12/04 09:37:18;;;;;;;1.25;1.10;;;21.00;28.60;;;;;;5033980;28;20040;-54
2023/12/04 09:39:44;;;;;;;1.45;1.25;;;21.00;28.60;;;;;;5033350;28;20034;-53
2023/12/04 09:42:10;;;;;;;1.73;1.42;;;21.00;28.50;;;;;;5033628;28;20192;-54
2023/12/04 09:44:37;;;;;;;1.63;1.25;;;21.10;28.50;;;;;;5033972;28;20040;-56
2023/12/04 09:47:04;;;;;;;1.70;1.55;;;21.10;28.50;;;;;;5034103;28;20306;-55
2023/12/04 09:49:31;;;;;;;2.20;1.50;;;21.10;28.50;;;;;;5033067;28;20037;-49
2023/12/04 09:52:04;;;;;;;2.13;1.40;;;21.10;28.50;;;;;;5033561;28;20112;-54
2023/12/04 09:54:30;;;;;;;2.00;1.58;;;21.10;28.50;;;;;;5033436;28;20336;-54
2023/12/04 09:56:57;;;;;;;1.50;1.30;;;21.10;28.50;;;;;;5031311;28;20068;-58
2023/12/04 09:59:29;;;;;;;1.40;1.30;;;21.10;28.50;;;;;;5033133;28;20021;-58
2023/12/04 10:01:55;;;;;;;1.88;1.35;;;21.10;28.50;;;;;;5033682;28;20030;-53
2023/12/04 10:04:22;;;;;;;1.80;1.40;;;21.10;28.50;;;;;;5033270;28;20504;-54
2023/12/04 10:06:50;;;;;;;1.70;1.60;;;21.10;28.50;;;;;;5015511;28;20029;-55
2023/12/04 10:09:17;;;;;;;1.80;1.40;;;21.00;28.40;;;;;;5033552;28;20121;-55
2023/12/04 10:11:45;;;;;;;1.45;1.30;;;21.10;28.50;;;;;;5015537;28;20034;-53
2023/12/04 10:14:21;;;;;;;1.48;1.30;;;21.00;28.40;;;;;;5016293;28;20022;-58
2023/12/04 10:16:47;;;;;;;1.67;1.33;;;21.00;28.40;;;;;;5032751;28;20088;-58
2023/12/04 10:19:17;;;;;;;2.03;1.63;;;21.00;28.40;;;;;;5033750;28;20025;-51
2023/12/04 10:21:46;;;;;;;1.88;1.52;;;21.00;28.30;;;;;;5032840;28;20018;-54
2023/12/04 10:24:12;;;;;;;2.40;1.60;;;21.00;28.30;;;;;;5033286;28;20037;-54
2023/12/04 10:26:42;;;;;;;2.35;1.40;;;20.90;28.30;;;;;;5033471;28;20037;-53
2023/12/04 10:29:08;;;;;;;2.30;1.80;;;20.90;28.30;;;;;;5032700;28;20361;-55
2023/12/04 10:31:34;;;;;;;2.75;1.63;;;20.90;28.30;;;;;;5033577;28;20029;-55
2023/12/04 10:34:04;;;;;;;2.38;1.70;;;20.90;28.30;;;;;;5032476;28;20036;-54
2023/12/04 10:36:31;;;;;;;2.40;1.58;;;20.90;28.30;;;;;;5031384;28;20376;-53
2023/12/04 10:39:00;;;;;;;1.67;1.40;;;20.90;28.30;;;;;;5032431;28;20025;-56
2023/12/04 10:41:27;;;;;;;2.10;1.38;;;20.90;28.30;;;;;;5034134;28;20052;-55
2023/12/04 10:43:55;;;;;;;1.63;1.50;;;20.80;28.30;;;;;;5036952;28;20472;-55
2023/12/04 10:46:22;;;;;;;1.95;1.45;;;20.80;28.30;;;;;;5037276;28;20036;-52
2023/12/04 10:48:48;;;;;;;2.03;1.60;;;20.80;28.30;;;;;;5036953;28;20033;-54
2023/12/04 10:51:17;;;;;;;2.47;1.63;;;20.80;28.30;;;;;;5037293;28;20040;-55
2023/12/04 10:53:44;;;;;;;2.08;1.50;;;20.70;28.20;;;;;;5037106;28;20372;-53
2023/12/04 10:56:36;;;;;;;2.08;1.60;;;20.80;28.30;;;;;;5035865;28;20025;-54
2023/12/04 10:59:05;;;;;;;2.20;1.60;;;20.70;28.20;;;;;;5026487;28;20187;-55
2023/12/04 11:01:31;;;;;;;1.98;1.30;;;20.70;28.30;;;;;;5035840;28;20037;-54
2023/12/04 11:04:06;;;;;;;2.05;1.60;;;20.70;28.30;;;;;;5037538;28;20029;-54
2023/12/04 11:06:34;;;;;;;1.38;1.23;;;20.70;28.30;;;;;;5036469;28;20083;-57
2023/12/04 11:09:04;;;;;;;1.90;1.58;;;20.70;28.30;;;;;;5036688;28;20037;-54
2023/12/04 11:11:38;;;;;;;2.25;1.60;;;20.70;28.20;;;;;;5034105;28;20460;-53
2023/12/04 11:14:07;;;;;;;1.90;1.58;;;20.70;28.20;;;;;;5016948;28;20045;-57
2023/12/04 11:16:46;;;;;;;1.90;1.52;;;20.60;28.20;;;;;;5035848;28;20025;-50
2023/12/04 11:19:22;;;;;;;1.67;1.30;;;20.60;28.20;;;;;;5035142;28;20128;-53
2023/12/04 11:21:50;;;;;;;1.83;1.60;;;20.60;28.10;;;;;;5036419;28;20364;-53
2023/12/04 11:24:18;;;;;;;1.73;1.50;;;20.60;28.20;;;;;;5019121;28;20532;-54
2023/12/04 11:26:44;;;;;;;1.50;1.40;;;20.60;28.10;;;;;;5036239;28;20053;-56
2023/12/04 11:29:13;;;;;;;1.55;1.40;;;20.60;28.10;;;;;;5036260;28;20037;-55
2023/12/04 11:31:39;;;;;;;2.40;1.58;;;20.60;28.10;;;;;;5035387;28;20030;-54
2023/12/04 11:34:07;;;;;;;1.38;1.27;;;20.60;28.10;;;;;;5018044;28;20029;-53
2023/12/04 11:36:34;;;;;;;1.95;1.55;;;20.60;28.10;;;;;;5035601;28;20040;-60
2023/12/04 11:39:00;;;;;;;1.67;1.40;;;20.60;28.10;;;;;;5035973;28;20037;-53
2023/12/04 11:41:26;;;;;;;2.35;1.75;;;20.60;28.10;;;;;;5023526;28;20045;-55
2023/12/04 11:43:55;;;;;;;2.08;1.60;;;20.60;28.10;;;;;;5038220;28;20029;-60
2023/12/04 11:46:26;;;;;;;1.80;1.40;;;20.60;28.10;;;;;;5038214;28;20139;-57
2023/12/04 11:48:57;;;;;;;2.05;1.55;;;20.50;28.00;;;;;;5038344;28;20109;-56
2023/12/04 11:51:46;;;;;;;2.72;1.33;;;20.50;28.10;;;;;;5054295;28;20036;-56
2023/12/04 11:54:17;;;;;;;1.88;1.40;;;20.50;28.10;;;;;;5035301;28;20123;-52
2023/12/04 11:57:01;;;;;;;1.92;1.50;;;20.50;28.10;;;;;;5047148;28;20089;-57
2023/12/04 11:59:27;;;;;;;1.58;1.10;;;20.50;28.10;;;;;;5077045;28;20033;-55
2023/12/04 12:01:58;;;;;;;1.85;1.42;;;20.50;28.20;;;;;;5051062;28;20056;-58
2023/12/04 12:04:25;;;;;;;1.40;1.20;;;20.50;28.20;;;;;;5055548;28;20021;-58
2023/12/04 12:06:52;;;;;;;1.80;1.27;;;20.50;28.20;;;;;;5055755;28;20036;-57
2023/12/04 12:09:18;;;;;;;1.80;1.48;;;20.50;28.20;;;;;;5056669;28;20041;-52
2023/12/04 12:11:45;;;;;;;2.83;1.45;;;20.50;28.20;;;;;;5057286;28;20120;-53
2023/12/04 12:14:10;;;;;;;1.30;1.10;;;20.40;28.10;;;;;;5056379;28;20037;-54
2023/12/04 12:16:36;;;;;;;2.10;1.45;;;20.50;28.20;;;;;;5070859;28;20103;-55
2023/12/04 12:19:02;;;;;;;1.70;1.40;;;20.40;28.10;;;;;;5054846;28;20352;-55
2023/12/04 12:21:28;;;;;;;1.55;1.25;;;20.40;28.10;;;;;;5056000;28;20033;-55
2023/12/04 12:23:54;;;;;;;1.73;1.33;;;20.40;28.60;;;;;;5056860;28;20029;-58
2023/12/04 12:26:24;;;;;;;1.98;1.58;;;20.50;28.10;;;;;;5055462;28;20107;-55
2023/12/04 12:28:51;;;;;;;1.80;1.40;;;20.40;28.10;;;;;;5033091;28;20025;-56
2023/12/04 12:31:17;;;;;;;1.67;1.23;;;20.40;28.10;;;;;;5048788;28;20179;-56
2023/12/04 12:33:43;;;;;;;1.45;1.33;;;20.40;28.10;;;;;;5055596;28;20533;-56
2023/12/04 12:36:09;;;;;;;2.20;1.35;;;20.40;28.10;;;;;;5053438;28;20025;-55
2023/12/04 12:38:36;;;;;;;1.58;1.40;;;20.40;28.10;;;;;;5054958;28;20175;-52
2023/12/04 12:41:08;;;;;;;1.73;1.40;;;20.40;28.10;;;;;;5055160;28;20043;-56
2023/12/04 12:43:34;;;;;;;2.08;1.50;;;20.40;28.10;;;;;;5038717;28;20056;-55
2023/12/04 12:46:00;;;;;;;1.83;1.30;;;20.40;28.10;;;;;;5019277;28;20113;-52